Willow Springs, IL (60480)

1:35 AM CST en Noviembre 26, 2014 (GMT -0600)
Palos Hills | Change Station
CLOSE
Current Station
Estación meteorológica personal
Location: Palos Hills, IL
Altura: 712 ft
Estaciones meteorológicas cercanas

Alt 712 ft 41.71 °N, 87.84 °W | Updated 3 minutes ago

Muy nublado
Muy nublado
21.3 ° F
Sensación térmica 21 ° F
N
1.0
Viento Variable Viento desde SSO
Gusts 5.0 mph

Hoy
Alta -- | Baja -- ° F
--% Posibilidad de precipitaciones
Ayer
Alta -- | Baja -- ° F
Precip. -- pul
6:53 AM 4:23 PM
Creciente, 17% visible
Presión 30.23 pul
Visibilidad 10.0 Millas
Nubes Nublado 1200 ft
Vientos helados 21 ° F
Punto de rocío 19 ° F
Humedad 89%
Precipitaciones -999.00 pul
Espesor de la nieve No disponible.
UV 0 de una escala de 12
Polen .10 de una escala de 12
Calidad del aire No disponible.
Flu Activity No disponible.
METAR KMDW 260653Z 20006KT 10SM OVC012 M04/M08 A3018 RMK AO2 SLP235 T10441078

More Conditions Fewer Conditions

Presión 30.23 pul
Visibilidad 10.0 Millas
Nubes Nublado 1200 ft
Vientos helados 21 ° F
Punto de rocío 19 ° F
Humedad 89%
Precipitaciones -999.00 pul
Espesor de la nieve No disponible.
UV 0 de una escala de 12
Polen .10 de una escala de 12
Calidad del aire No disponible.
Flu Activity No disponible.
METAR KMDW 260653Z 20006KT 10SM OVC012 M04/M08 A3018 RMK AO2 SLP235 T10441078

More Conditions Fewer Conditions

10-Day Weather Forecast

Almanac

Astronomía

Nov. 26, 2014 Salida Puesta
Hora real
Crepúsculo civil
Crepúsculo náutico
Crepúsculo astronómico
Luna
Horas de luz
Horas de luz
Tomorrow will be .
, % of the Moon is Illuminated

Extremos de hoy

Máximos del estado Bajos del estado

Community

WunderPhotos

Upload Photos

1,773,694 ¡fotos cargadas!

WunderBlogs® & News

Nearby

Calidad del aire

  Calidad del aire Índice AQ Contaminante
Not available.

Grosos de nieve

Estación Profundido Altura

Actividad de terremotos

Ciudad Distance Mag. Tiempo y dato
Magnitud mínima muestra es 2,5.

Temperaturas de aguas costeras

Lugar Temperatura

Estaciones meteorológicas cercanas